Arklow Raider — EIXS — position and weather

sailwx.info

Track history (hours):
 
Tides and Currents Weather Stations Pressure Air Temp Water Temp Dewpoint Dewpoint Depression Visibility Wind Speed Wind Dir Waves Ship Positions

Arklow Raider

Last reported at 2014-Oct-23 17:03 UTC. Time now 2014-Oct-26 06:07 UTC.
Position N 50°05' W 003°41'.

Length 90 m; draft 6.1 m.

Type: Ship. MMSI: 250001268.

Date/timePositionNaut miles runAvg speedWind from/ knotsBaromVisibWave heightAir tempDewpointWater temp
2014-Oct-23 17:03N 50°05' W 003°41'4 8.3
2014-Oct-23 16:33N 50°08' W 003°36'10 9.1
2014-Oct-23 15:28N 50°10' W 003°21'1010.2
2014-Oct-23 14:31N 50°12' W 003°06'1211.4
2014-Oct-23 13:30N 50°15' W 002°49'72 9.0
2014-Oct-23 05:33N 50°30' W 000°59'3310.4
2014-Oct-23 02:23N 50°32' W 000°07'911.6
2014-Oct-23 01:34N 50°34' E 000°08'1311.3
2014-Oct-23 00:26N 50°37' E 000°27'910.3
2014-Oct-22 23:34N 50°41' E 000°40'10 9.6
2014-Oct-22 22:33N 50°46' E 000°52'13 9.2
2014-Oct-22 21:06N 50°55' E 001°09'5 9.7
2014-Oct-22 20:33N 50°58' E 001°16'1312.5
2014-Oct-22 19:33N 51°06' E 001°31'1414.1
2014-Oct-22 18:34N 51°19' E 001°41'1212.2
2014-Oct-22 17:33N 51°31' E 001°44'1110.9
2014-Oct-22 16:33N 51°41' E 001°45'10 9.8
2014-Oct-22 15:34N 51°51' E 001°40'10 9.7
2014-Oct-22 14:33N 51°56' E 001°27'9 8.8
2014-Oct-22 13:33N 51°60' E 001°14'4 3.5
2014-Oct-22 12:32N 52°02' E 001°10'0 0.0
2014-Oct-22 11:32N 52°02' E 001°10'0 0.0
2014-Oct-22 10:32N 52°02' E 001°10'0 0.0
2014-Oct-22 09:32N 52°02' E 001°10'0 0.0
2014-Oct-22 08:29N 52°02' E 001°10'0 0.0
2014-Oct-22 07:32N 52°02' E 001°10'0 0.0
2014-Oct-22 06:32N 52°02' E 001°10'0 0.0
2014-Oct-22 05:32N 52°02' E 001°10'0 0.0
2014-Oct-22 04:32N 52°02' E 001°10'0 0.0
2014-Oct-22 03:32N 52°02' E 001°10'0 0.0
2014-Oct-22 02:32N 52°02' E 001°10'0 0.0
2014-Oct-22 01:32N 52°02' E 001°10'0 0.0
2014-Oct-22 00:32N 52°02' E 001°10'0 0.0
2014-Oct-21 23:32N 52°02' E 001°10'0 0.0
2014-Oct-21 22:29N 52°02' E 001°10'0 0.0
2014-Oct-21 21:32N 52°02' E 001°10'0 0.0
2014-Oct-21 20:26N 52°02' E 001°10'0 0.0
2014-Oct-21 19:29N 52°02' E 001°10'0 0.0
2014-Oct-21 18:32N 52°02' E 001°10'0 0.0
2014-Oct-21 17:20N 52°02' E 001°10'0 0.0
2014-Oct-21 16:26N 52°02' E 001°10'0 0.0
2014-Oct-21 15:32N 52°02' E 001°10'0 0.0
2014-Oct-21 14:29N 52°02' E 001°10'0 0.0
2014-Oct-21 13:32N 52°02' E 001°10'0 0.0
2014-Oct-21 12:32N 52°02' E 001°10'0 0.0
2014-Oct-21 11:26N 52°02' E 001°10'0 0.0
2014-Oct-21 10:26N 52°02' E 001°10'0 0.0
2014-Oct-21 09:32N 52°02' E 001°10'0 0.0
2014-Oct-21 08:32N 52°02' E 001°10'0 0.0
2014-Oct-21 07:32N 52°02' E 001°10'0 0.0
2014-Oct-21 06:32N 52°02' E 001°10'0 0.0
2014-Oct-21 05:32N 52°02' E 001°10'0 0.0
2014-Oct-21 04:32N 52°02' E 001°10'0 0.0
2014-Oct-21 03:23N 52°02' E 001°10'0 0.0
2014-Oct-21 02:32N 52°02' E 001°10'0 0.0
2014-Oct-21 01:32N 52°02' E 001°10'0 0.0
2014-Oct-21 00:32N 52°02' E 001°10'0 0.0
2014-Oct-20 23:32N 52°02' E 001°10'0 0.0
2014-Oct-20 22:32N 52°02' E 001°10'0 0.0
2014-Oct-20 21:32N 52°02' E 001°10'0 0.0
2014-Oct-20 20:32N 52°02' E 001°10'0 0.0
2014-Oct-20 19:32N 52°02' E 001°10'0 0.0
2014-Oct-20 18:32N 52°02' E 001°10'0 0.1
2014-Oct-20 17:33N 52°02' E 001°10'0 0.2
2014-Oct-20 16:32N 52°02' E 001°09'0 0.0
2014-Oct-20 15:32N 52°02' E 001°09'0 0.0
2014-Oct-20 14:32N 52°02' E 001°09'0 0.0
2014-Oct-20 13:32N 52°02' E 001°09'0 0.0
2014-Oct-20 12:32N 52°02' E 001°09'0 0.0
2014-Oct-20 11:32N 52°02' E 001°09'0 0.0
2014-Oct-20 10:32N 52°02' E 001°09'0 0.0
2014-Oct-20 09:32N 52°02' E 001°09'0 0.0
2014-Oct-20 08:32N 52°02' E 001°10'0 0.0
2014-Oct-20 07:32N 52°02' E 001°09'0 0.0
2014-Oct-20 06:32N 52°02' E 001°09'0 0.0
2014-Oct-20 05:32N 52°02' E 001°09'0 0.0
2014-Oct-20 04:32N 52°02' E 001°09'0 0.0
2014-Oct-20 03:32N 52°02' E 001°09'0 0.0
2014-Oct-20 02:32N 52°02' E 001°09'0 0.0
2014-Oct-20 01:32N 52°02' E 001°09'0 0.0
2014-Oct-20 00:32N 52°02' E 001°09'0 0.0
2014-Oct-19 23:32N 52°02' E 001°09'0 0.0
2014-Oct-19 22:32N 52°02' E 001°09'0 0.0
2014-Oct-19 21:32N 52°02' E 001°09'0 0.0
2014-Oct-19 20:32N 52°02' E 001°09'0 0.0
2014-Oct-19 19:32N 52°02' E 001°09'0 0.0
2014-Oct-19 18:32N 52°02' E 001°09'0 0.0
2014-Oct-19 17:32N 52°02' E 001°09'0 0.0
2014-Oct-19 16:32N 52°02' E 001°09'0 0.0
2014-Oct-19 15:32N 52°02' E 001°09'0 0.0
2014-Oct-19 14:32N 52°02' E 001°09'0 0.0
2014-Oct-19 13:32N 52°02' E 001°09'0 0.0
2014-Oct-19 12:32N 52°02' E 001°09'0 0.0
2014-Oct-19 11:32N 52°02' E 001°09'0 0.0
2014-Oct-19 10:32N 52°02' E 001°09'0 0.0
2014-Oct-19 09:26N 52°02' E 001°09'0 0.0
2014-Oct-19 08:32N 52°02' E 001°09'0 0.0
2014-Oct-19 07:32N 52°02' E 001°09'0 0.0
2014-Oct-19 06:32N 52°02' E 001°09'0 0.0
2014-Oct-19 05:29N 52°02' E 001°09'0 0.0
2014-Oct-19 04:32N 52°02' E 001°09'0 0.0
2014-Oct-19 03:32N 52°02' E 001°09'0 0.0
2014-Oct-19 02:32N 52°02' E 001°10'0 0.0
2014-Oct-19 01:32N 52°02' E 001°09'0 0.0
2014-Oct-19 00:29N 52°02' E 001°09'0 0.0
2014-Oct-18 23:32N 52°02' E 001°09'0 0.0
2014-Oct-18 22:32N 52°02' E 001°09'0 0.0
2014-Oct-18 21:32N 52°02' E 001°09'0 0.0
2014-Oct-18 20:32N 52°02' E 001°09'0 0.0
2014-Oct-18 19:32N 52°02' E 001°09'0 0.0
2014-Oct-18 18:32N 52°02' E 001°09'0 0.0
2014-Oct-18 17:32N 52°02' E 001°09'0 0.0
2014-Oct-18 16:32N 52°02' E 001°09'0 0.0
2014-Oct-18 15:32N 52°02' E 001°09'0 0.0
2014-Oct-18 14:32N 52°02' E 001°09'0 0.0
2014-Oct-18 13:32N 52°02' E 001°09'0 0.0
2014-Oct-18 12:32N 52°02' E 001°09'0 0.0
2014-Oct-18 11:32N 52°02' E 001°09'0 0.0
2014-Oct-18 10:32N 52°02' E 001°09'0 0.0
2014-Oct-18 09:32N 52°02' E 001°09'0 0.0
2014-Oct-18 08:32N 52°02' E 001°09'0 0.0
2014-Oct-18 07:32N 52°02' E 001°09'0 0.0
2014-Oct-18 06:32N 52°02' E 001°09'0 0.0
2014-Oct-18 05:32N 52°02' E 001°09'0 0.0
2014-Oct-18 04:32N 52°02' E 001°09'0 0.0
2014-Oct-18 03:32N 52°02' E 001°09'0 0.0
2014-Oct-18 02:32N 52°02' E 001°09'0 0.0
2014-Oct-18 01:32N 52°02' E 001°09'0 0.0
2014-Oct-18 00:32N 52°02' E 001°09'0 0.0
2014-Oct-17 23:32N 52°02' E 001°09'0 0.0
2014-Oct-17 22:32N 52°02' E 001°09'0 0.0
2014-Oct-17 21:26N 52°02' E 001°09'0 0.0
2014-Oct-17 20:32N 52°02' E 001°09'0 0.0
2014-Oct-17 19:32N 52°02' E 001°09'0 0.0
2014-Oct-17 18:32N 52°02' E 001°09'0 0.2
2014-Oct-17 17:29N 52°02' E 001°09'0 0.0
2014-Oct-17 16:29N 52°02' E 001°09'0 0.0
2014-Oct-17 15:32N 52°02' E 001°09'0 0.0
2014-Oct-17 14:32N 52°02' E 001°09'0 0.0
2014-Oct-17 13:32N 52°02' E 001°09'0 0.0
2014-Oct-17 12:32N 52°02' E 001°09'0 0.0
2014-Oct-17 11:32N 52°02' E 001°09'0 0.0
2014-Oct-17 10:32N 52°02' E 001°09'0 0.0
2014-Oct-17 09:32N 52°02' E 001°09'0 0.0
2014-Oct-17 08:32N 52°02' E 001°09'0 0.0
2014-Oct-17 07:32N 52°02' E 001°09'4 4.0
2014-Oct-17 06:33N 51°60' E 001°15'8 8.5
2014-Oct-17 05:34N 51°56' E 001°27'4 3.5
2014-Oct-17 04:33N 51°55' E 001°32'9 8.7
2014-Oct-17 03:33N 51°51' E 001°45'10 9.8
2014-Oct-17 02:33N 51°52' E 002°01'137 6.5
2014-Oct-16 05:22N 53°29' E 004°41'910.9
2014-Oct-16 04:33N 53°33' E 004°55'1110.8
2014-Oct-16 03:33N 53°37' E 005°12'1010.2
2014-Oct-16 02:33N 53°39' E 005°28'10 9.5
2014-Oct-16 01:33N 53°42' E 005°43'9 9.1
2014-Oct-16 00:33N 53°45' E 005°58'5510.0
2014-Oct-15 19:07N 54°00' E 007°27'711.4
2014-Oct-15 18:33N 54°02' E 007°38'1111.2
2014-Oct-15 17:33N 54°02' E 007°57'1111.3
2014-Oct-15 16:33N 54°00' E 008°16'1211.6
2014-Oct-15 15:33N 53°58' E 008°35'1010.0
2014-Oct-15 14:33N 53°51' E 008°47'1010.2
2014-Oct-15 13:33N 53°52' E 009°04'3 3.0
2014-Oct-15 12:33N 53°54' E 009°09'7 6.9
2014-Oct-15 11:33N 53°59' E 009°17'13 6.2
2014-Oct-15 09:30N 54°10' E 009°26'10 7.7
2014-Oct-15 08:12N 54°17' E 009°39'4 7.0
2014-Oct-15 07:33N 54°20' E 009°44'7 7.3
2014-Oct-15 06:33N 54°20' E 009°57'7 7.2
2014-Oct-15 05:33N 54°22' E 010°09'2 1.7
2014-Oct-15 04:33N 54°23' E 010°11'9 9.4
2014-Oct-15 03:33N 54°31' E 010°20'6 5.5
2014-Oct-15 02:33N 54°33' E 010°29'7 6.6
2014-Oct-15 01:33N 54°35' E 010°40'8 7.6
2014-Oct-15 00:33N 54°35' E 010°53'9 8.4
2014-Oct-14 23:31N 54°36' E 011°08'17 8.8
2014-Oct-14 21:33N 54°29' E 011°35'9 8.7
2014-Oct-14 20:33N 54°26' E 011°49'9 8.8
2014-Oct-14 19:33N 54°27' E 012°04'8 7.9
2014-Oct-14 18:33N 54°33' E 012°13'87 9.4
2014-Oct-14 09:16N 55°18' E 014°23'810.5
2014-Oct-14 08:30N 55°24' E 014°31'1010.3
2014-Oct-14 07:33N 55°30' E 014°45'1110.2
2014-Oct-14 06:30N 55°35' E 015°02'  
Track history (hours):
 
Tides and Currents Weather Stations Pressure Air Temp Water Temp Dewpoint Dewpoint Depression Visibility Wind Speed Wind Dir Waves Ship Positions

Arklow Raider

Last reported at 2014-Oct-23 17:03 UTC. Time now 2014-Oct-26 06:07 UTC.
Position N 50°05' W 003°41'.

Length 90 m; draft 6.1 m.

Type: Ship. MMSI: 250001268.

Date/timePositionNaut miles runAvg speedWind from/ knotsBaromVisibWave heightAir tempDewpointWater temp
2014-Oct-23 17:03N 50°05' W 003°41'4 8.3
2014-Oct-23 16:33N 50°08' W 003°36'10 9.1
2014-Oct-23 15:28N 50°10' W 003°21'1010.2
2014-Oct-23 14:31N 50°12' W 003°06'1211.4
2014-Oct-23 13:30N 50°15' W 002°49'72 9.0
2014-Oct-23 05:33N 50°30' W 000°59'3310.4
2014-Oct-23 02:23N 50°32' W 000°07'911.6
2014-Oct-23 01:34N 50°34' E 000°08'1311.3
2014-Oct-23 00:26N 50°37' E 000°27'910.3
2014-Oct-22 23:34N 50°41' E 000°40'10 9.6
2014-Oct-22 22:33N 50°46' E 000°52'13 9.2
2014-Oct-22 21:06N 50°55' E 001°09'5 9.7
2014-Oct-22 20:33N 50°58' E 001°16'1312.5
2014-Oct-22 19:33N 51°06' E 001°31'1414.1
2014-Oct-22 18:34N 51°19' E 001°41'1212.2
2014-Oct-22 17:33N 51°31' E 001°44'1110.9
2014-Oct-22 16:33N 51°41' E 001°45'10 9.8
2014-Oct-22 15:34N 51°51' E 001°40'10 9.7
2014-Oct-22 14:33N 51°56' E 001°27'9 8.8
2014-Oct-22 13:33N 51°60' E 001°14'4 3.5
2014-Oct-22 12:32N 52°02' E 001°10'0 0.0
2014-Oct-22 11:32N 52°02' E 001°10'0 0.0
2014-Oct-22 10:32N 52°02' E 001°10'0 0.0
2014-Oct-22 09:32N 52°02' E 001°10'0 0.0
2014-Oct-22 08:29N 52°02' E 001°10'0 0.0
2014-Oct-22 07:32N 52°02' E 001°10'0 0.0
2014-Oct-22 06:32N 52°02' E 001°10'0 0.0
2014-Oct-22 05:32N 52°02' E 001°10'0 0.0
2014-Oct-22 04:32N 52°02' E 001°10'0 0.0
2014-Oct-22 03:32N 52°02' E 001°10'0 0.0
2014-Oct-22 02:32N 52°02' E 001°10'0 0.0
2014-Oct-22 01:32N 52°02' E 001°10'0 0.0
2014-Oct-22 00:32N 52°02' E 001°10'0 0.0
2014-Oct-21 23:32N 52°02' E 001°10'0 0.0
2014-Oct-21 22:29N 52°02' E 001°10'0 0.0
2014-Oct-21 21:32N 52°02' E 001°10'0 0.0
2014-Oct-21 20:26N 52°02' E 001°10'0 0.0
2014-Oct-21 19:29N 52°02' E 001°10'0 0.0
2014-Oct-21 18:32N 52°02' E 001°10'0 0.0
2014-Oct-21 17:20N 52°02' E 001°10'0 0.0
2014-Oct-21 16:26N 52°02' E 001°10'0 0.0
2014-Oct-21 15:32N 52°02' E 001°10'0 0.0
2014-Oct-21 14:29N 52°02' E 001°10'0 0.0
2014-Oct-21 13:32N 52°02' E 001°10'0 0.0
2014-Oct-21 12:32N 52°02' E 001°10'0 0.0
2014-Oct-21 11:26N 52°02' E 001°10'0 0.0
2014-Oct-21 10:26N 52°02' E 001°10'0 0.0
2014-Oct-21 09:32N 52°02' E 001°10'0 0.0
2014-Oct-21 08:32N 52°02' E 001°10'0 0.0
2014-Oct-21 07:32N 52°02' E 001°10'0 0.0
2014-Oct-21 06:32N 52°02' E 001°10'0 0.0
2014-Oct-21 05:32N 52°02' E 001°10'0 0.0
2014-Oct-21 04:32N 52°02' E 001°10'0 0.0
2014-Oct-21 03:23N 52°02' E 001°10'0 0.0
2014-Oct-21 02:32N 52°02' E 001°10'0 0.0
2014-Oct-21 01:32N 52°02' E 001°10'0 0.0
2014-Oct-21 00:32N 52°02' E 001°10'0 0.0
2014-Oct-20 23:32N 52°02' E 001°10'0 0.0
2014-Oct-20 22:32N 52°02' E 001°10'0 0.0
2014-Oct-20 21:32N 52°02' E 001°10'0 0.0
2014-Oct-20 20:32N 52°02' E 001°10'0 0.0
2014-Oct-20 19:32N 52°02' E 001°10'0 0.0
2014-Oct-20 18:32N 52°02' E 001°10'0 0.1
2014-Oct-20 17:33N 52°02' E 001°10'0 0.2
2014-Oct-20 16:32N 52°02' E 001°09'0 0.0
2014-Oct-20 15:32N 52°02' E 001°09'0 0.0
2014-Oct-20 14:32N 52°02' E 001°09'0 0.0
2014-Oct-20 13:32N 52°02' E 001°09'0 0.0
2014-Oct-20 12:32N 52°02' E 001°09'0 0.0
2014-Oct-20 11:32N 52°02' E 001°09'0 0.0
2014-Oct-20 10:32N 52°02' E 001°09'0 0.0
2014-Oct-20 09:32N 52°02' E 001°09'0 0.0
2014-Oct-20 08:32N 52°02' E 001°10'0 0.0
2014-Oct-20 07:32N 52°02' E 001°09'0 0.0
2014-Oct-20 06:32N 52°02' E 001°09'0 0.0
2014-Oct-20 05:32N 52°02' E 001°09'0 0.0
2014-Oct-20 04:32N 52°02' E 001°09'0 0.0
2014-Oct-20 03:32N 52°02' E 001°09'0 0.0
2014-Oct-20 02:32N 52°02' E 001°09'0 0.0
2014-Oct-20 01:32N 52°02' E 001°09'0 0.0
2014-Oct-20 00:32N 52°02' E 001°09'0 0.0
2014-Oct-19 23:32N 52°02' E 001°09'0 0.0
2014-Oct-19 22:32N 52°02' E 001°09'0 0.0
2014-Oct-19 21:32N 52°02' E 001°09'0 0.0
2014-Oct-19 20:32N 52°02' E 001°09'0 0.0
2014-Oct-19 19:32N 52°02' E 001°09'0 0.0
2014-Oct-19 18:32N 52°02' E 001°09'0 0.0
2014-Oct-19 17:32N 52°02' E 001°09'0 0.0
2014-Oct-19 16:32N 52°02' E 001°09'0 0.0
2014-Oct-19 15:32N 52°02' E 001°09'0 0.0
2014-Oct-19 14:32N 52°02' E 001°09'0 0.0
2014-Oct-19 13:32N 52°02' E 001°09'0 0.0
2014-Oct-19 12:32N 52°02' E 001°09'0 0.0
2014-Oct-19 11:32N 52°02' E 001°09'0 0.0
2014-Oct-19 10:32N 52°02' E 001°09'0 0.0
2014-Oct-19 09:26N 52°02' E 001°09'0 0.0
2014-Oct-19 08:32N 52°02' E 001°09'0 0.0
2014-Oct-19 07:32N 52°02' E 001°09'0 0.0
2014-Oct-19 06:32N 52°02' E 001°09'0 0.0
2014-Oct-19 05:29N 52°02' E 001°09'0 0.0
2014-Oct-19 04:32N 52°02' E 001°09'0 0.0
2014-Oct-19 03:32N 52°02' E 001°09'0 0.0
2014-Oct-19 02:32N 52°02' E 001°10'0 0.0
2014-Oct-19 01:32N 52°02' E 001°09'0 0.0
2014-Oct-19 00:29N 52°02' E 001°09'0 0.0
2014-Oct-18 23:32N 52°02' E 001°09'0 0.0
2014-Oct-18 22:32N 52°02' E 001°09'0 0.0
2014-Oct-18 21:32N 52°02' E 001°09'0 0.0
2014-Oct-18 20:32N 52°02' E 001°09'0 0.0
2014-Oct-18 19:32N 52°02' E 001°09'0 0.0
2014-Oct-18 18:32N 52°02' E 001°09'0 0.0
2014-Oct-18 17:32N 52°02' E 001°09'0 0.0
2014-Oct-18 16:32N 52°02' E 001°09'0 0.0
2014-Oct-18 15:32N 52°02' E 001°09'0 0.0
2014-Oct-18 14:32N 52°02' E 001°09'0 0.0
2014-Oct-18 13:32N 52°02' E 001°09'0 0.0
2014-Oct-18 12:32N 52°02' E 001°09'0 0.0
2014-Oct-18 11:32N 52°02' E 001°09'0 0.0
2014-Oct-18 10:32N 52°02' E 001°09'0 0.0
2014-Oct-18 09:32N 52°02' E 001°09'0 0.0
2014-Oct-18 08:32N 52°02' E 001°09'0 0.0
2014-Oct-18 07:32N 52°02' E 001°09'0 0.0
2014-Oct-18 06:32N 52°02' E 001°09'0 0.0
2014-Oct-18 05:32N 52°02' E 001°09'0 0.0
2014-Oct-18 04:32N 52°02' E 001°09'0 0.0
2014-Oct-18 03:32N 52°02' E 001°09'0 0.0
2014-Oct-18 02:32N 52°02' E 001°09'0 0.0
2014-Oct-18 01:32N 52°02' E 001°09'0 0.0
2014-Oct-18 00:32N 52°02' E 001°09'0 0.0
2014-Oct-17 23:32N 52°02' E 001°09'0 0.0
2014-Oct-17 22:32N 52°02' E 001°09'0 0.0
2014-Oct-17 21:26N 52°02' E 001°09'0 0.0
2014-Oct-17 20:32N 52°02' E 001°09'0 0.0
2014-Oct-17 19:32N 52°02' E 001°09'0 0.0
2014-Oct-17 18:32N 52°02' E 001°09'0 0.2
2014-Oct-17 17:29N 52°02' E 001°09'0 0.0
2014-Oct-17 16:29N 52°02' E 001°09'0 0.0
2014-Oct-17 15:32N 52°02' E 001°09'0 0.0
2014-Oct-17 14:32N 52°02' E 001°09'0 0.0
2014-Oct-17 13:32N 52°02' E 001°09'0 0.0
2014-Oct-17 12:32N 52°02' E 001°09'0 0.0
2014-Oct-17 11:32N 52°02' E 001°09'0 0.0
2014-Oct-17 10:32N 52°02' E 001°09'0 0.0
2014-Oct-17 09:32N 52°02' E 001°09'0 0.0
2014-Oct-17 08:32N 52°02' E 001°09'0 0.0
2014-Oct-17 07:32N 52°02' E 001°09'4 4.0
2014-Oct-17 06:33N 51°60' E 001°15'8 8.5
2014-Oct-17 05:34N 51°56' E 001°27'4 3.5
2014-Oct-17 04:33N 51°55' E 001°32'9 8.7
2014-Oct-17 03:33N 51°51' E 001°45'10 9.8
2014-Oct-17 02:33N 51°52' E 002°01'137 6.5
2014-Oct-16 05:22N 53°29' E 004°41'910.9
2014-Oct-16 04:33N 53°33' E 004°55'1110.8
2014-Oct-16 03:33N 53°37' E 005°12'1010.2
2014-Oct-16 02:33N 53°39' E 005°28'10 9.5
2014-Oct-16 01:33N 53°42' E 005°43'9 9.1
2014-Oct-16 00:33N 53°45' E 005°58'5510.0
2014-Oct-15 19:07N 54°00' E 007°27'711.4
2014-Oct-15 18:33N 54°02' E 007°38'1111.2
2014-Oct-15 17:33N 54°02' E 007°57'1111.3
2014-Oct-15 16:33N 54°00' E 008°16'1211.6
2014-Oct-15 15:33N 53°58' E 008°35'1010.0
2014-Oct-15 14:33N 53°51' E 008°47'1010.2
2014-Oct-15 13:33N 53°52' E 009°04'3 3.0
2014-Oct-15 12:33N 53°54' E 009°09'7 6.9
2014-Oct-15 11:33N 53°59' E 009°17'13 6.2
2014-Oct-15 09:30N 54°10' E 009°26'10 7.7
2014-Oct-15 08:12N 54°17' E 009°39'4 7.0
2014-Oct-15 07:33N 54°20' E 009°44'7 7.3
2014-Oct-15 06:33N 54°20' E 009°57'7 7.2
2014-Oct-15 05:33N 54°22' E 010°09'2 1.7
2014-Oct-15 04:33N 54°23' E 010°11'9 9.4
2014-Oct-15 03:33N 54°31' E 010°20'6 5.5
2014-Oct-15 02:33N 54°33' E 010°29'7 6.6
2014-Oct-15 01:33N 54°35' E 010°40'8 7.6
2014-Oct-15 00:33N 54°35' E 010°53'9 8.4
2014-Oct-14 23:31N 54°36' E 011°08'17 8.8
2014-Oct-14 21:33N 54°29' E 011°35'9 8.7
2014-Oct-14 20:33N 54°26' E 011°49'9 8.8
2014-Oct-14 19:33N 54°27' E 012°04'8 7.9
2014-Oct-14 18:33N 54°33' E 012°13'87 9.4
2014-Oct-14 09:16N 55°18' E 014°23'810.5
2014-Oct-14 08:30N 55°24' E 014°31'1010.3
2014-Oct-14 07:33N 55°30' E 014°45'1110.2
2014-Oct-14 06:30N 55°35' E 015°02'  

Dump ship's entire track history